Time;durP1;ratioP1;P1;durP2;ratioP2;P2;SDS_P1;SDS_P2;PMS_P1;PMS_P2;Temp;Humidity;BMP_temperature;BMP_pressure;BME280_temperature;BME280_humidity;BME280_pressure;Samples;Min_cycle;Max_cycle;Signal;HPM_P1;HPM_P2
2021/10/13 00:01:57;;;;;;;27.93;16.25;;;;;;;7.19;84.75;100249.70;1750438;81;25864;-84
2021/10/13 00:04:24;;;;;;;25.50;17.02;;;;;;;7.14;84.78;100258.73;1722530;79;25883;-85
2021/10/13 00:06:51;;;;;;;32.53;19.70;;;;;;;7.08;84.99;100258.10;1705933;81;26631;-84
2021/10/13 00:09:18;;;;;;;29.85;19.17;;;;;;;7.04;85.32;100257.59;1785633;79;25784;-84
2021/10/13 00:11:45;;;;;;;33.28;19.85;;;;;;;7.00;85.16;100261.61;1710933;82;28352;-84
2021/10/13 00:14:12;;;;;;;34.15;20.70;;;;;;;7.03;85.42;100263.10;1664426;80;25962;-84
2021/10/13 00:16:39;;;;;;;37.80;22.00;;;;;;;6.99;85.36;100269.28;1727180;81;25912;-84
2021/10/13 00:19:06;;;;;;;33.60;20.25;;;;;;;6.94;85.41;100272.46;1768649;80;25803;-84
2021/10/13 00:21:33;;;;;;;42.58;23.50;;;;;;;6.91;85.44;100278.11;1753950;81;26378;-84
2021/10/13 00:24:00;;;;;;;35.92;21.85;;;;;;;6.91;85.57;100274.61;1720229;82;27387;-84
2021/10/13 00:26:27;;;;;;;36.05;23.02;;;;;;;6.88;85.81;100281.63;1742682;80;25514;-84
2021/10/13 00:28:54;;;;;;;35.55;23.45;;;;;;;6.87;86.01;100277.29;1714837;82;25805;-85
2021/10/13 00:31:21;;;;;;;39.35;23.27;;;;;;;6.90;85.87;100284.45;1744494;81;25817;-84
2021/10/13 00:33:48;;;;;;;31.52;21.52;;;;;;;6.93;85.95;100286.76;1746488;80;25679;-84
2021/10/13 00:36:15;;;;;;;37.75;23.70;;;;;;;6.91;85.80;100289.25;1715934;81;27465;-84
2021/10/13 00:38:42;;;;;;;38.33;23.55;;;;;;;6.91;85.88;100289.25;1712545;81;25831;-83
2021/10/13 00:41:09;;;;;;;38.10;22.98;;;;;;;6.92;85.83;100283.78;1751798;81;25776;-85
2021/10/13 00:43:37;;;;;;;36.33;22.75;;;;;;;6.94;85.83;100287.59;1665974;83;25827;-84
2021/10/13 00:46:06;;;;;;;38.73;22.70;;;;;;;6.95;85.82;100288.75;1682391;82;25813;-84
2021/10/13 00:48:33;;;;;;;36.90;21.75;;;;;;;6.97;85.74;100285.94;1706354;82;27493;-84
2021/10/13 00:51:00;;;;;;;35.20;21.82;;;;;;;7.00;85.75;100289.57;1735492;82;25791;-84
2021/10/13 00:53:27;;;;;;;34.40;21.95;;;;;;;6.91;85.77;100286.59;1710155;81;25803;-84
2021/10/13 00:55:56;;;;;;;31.20;19.20;;;;;;;6.89;85.93;100289.93;1666923;80;26098;-84
2021/10/13 00:58:24;;;;;;;32.35;20.57;;;;;;;6.87;86.32;100292.77;1734119;80;26335;-84
2021/10/13 01:00:56;;;;;;;32.20;21.33;;;;;;;6.85;85.86;100291.27;1762702;79;27633;-84
2021/10/13 01:03:47;;;;;;;36.30;22.02;;;;;;;6.85;85.85;100289.95;1728782;79;26211;-84
2021/10/13 01:06:46;;;;;;;32.93;21.95;;;;;;;6.88;85.98;100293.61;1740393;81;25604;-85
2021/10/13 01:09:26;;;;;;;32.55;20.75;;;;;;;6.89;86.02;100296.09;1735772;81;26617;-85
2021/10/13 01:12:08;;;;;;;32.80;19.82;;;;;;;6.91;86.01;100302.56;1715997;81;25967;-84
2021/10/13 01:14:56;;;;;;;35.17;21.35;;;;;;;6.92;85.97;100303.75;1717389;81;27321;-84
2021/10/13 01:17:36;;;;;;;32.05;20.50;;;;;;;6.95;86.11;100299.89;1742559;81;26679;-84
2021/10/13 01:20:30;;;;;;;33.58;21.62;;;;;;;6.95;85.97;100303.89;1703672;81;25368;-84
2021/10/13 01:23:24;;;;;;;33.42;21.00;;;;;;;6.93;86.03;100309.88;1757576;79;25747;-84
2021/10/13 01:26:20;;;;;;;33.28;20.82;;;;;;;6.91;85.96;100311.39;1760387;80;25840;-84
2021/10/13 01:28:49;;;;;;;33.65;21.73;;;;;;;6.92;86.05;100310.41;1755564;80;27494;-84
2021/10/13 01:31:27;;;;;;;27.37;19.42;;;;;;;6.96;86.21;100309.55;1733914;80;26100;-85
2021/10/13 01:34:02;;;;;;;27.50;20.68;;;;;;;6.96;86.21;100309.06;1764705;80;25895;-84
2021/10/13 01:36:37;;;;;;;30.15;21.42;;;;;;;6.95;86.22;100307.87;1749863;80;26402;-84
2021/10/13 01:39:06;;;;;;;33.80;24.45;;;;;;;6.96;86.26;100304.23;1748462;80;25769;-84
2021/10/13 01:41:37;;;;;;;31.90;21.77;;;;;;;6.94;86.27;100307.08;1737686;80;27599;-84
2021/10/13 01:44:05;;;;;;;39.35;23.00;;;;;;;6.96;86.35;100303.73;1758649;80;25950;-84
2021/10/13 01:46:33;;;;;;;34.88;21.33;;;;;;;6.96;86.40;100305.06;1780662;79;25844;-85
2021/10/13 01:49:04;;;;;;;34.73;21.42;;;;;;;6.96;86.28;100306.89;1763670;79;25928;-83
2021/10/13 01:51:32;;;;;;;32.80;21.45;;;;;;;6.98;86.47;100310.22;1733981;80;25832;-83
2021/10/13 01:54:02;;;;;;;32.98;20.90;;;;;;;6.98;86.37;100308.39;1759091;80;27564;-84
2021/10/13 01:56:30;;;;;;;28.13;19.70;;;;;;;6.97;86.21;100314.70;1749206;80;25418;-83
2021/10/13 01:59:02;;;;;;;30.35;20.52;;;;;;;6.96;86.19;100314.39;1764080;80;25773;-84
2021/10/13 02:01:33;;;;;;;32.40;21.37;;;;;;;6.96;86.25;100311.73;1767239;79;25898;-84
2021/10/13 02:04:04;;;;;;;28.40;19.95;;;;;;;6.96;86.20;100315.72;1720432;80;25415;-84
2021/10/13 02:06:33;;;;;;;25.90;18.92;;;;;;;6.99;86.39;100314.03;1730106;81;27579;-84
2021/10/13 02:09:02;;;;;;;25.82;17.98;;;;;;;6.96;86.19;100321.05;1744643;80;25962;-84
2021/10/13 02:11:31;;;;;;;29.37;20.00;;;;;;;6.95;86.26;100317.20;1756168;80;25906;-83
2021/10/13 02:14:06;;;;;;;23.25;17.60;;;;;;;6.92;86.34;100319.73;1695448;80;26390;-83
2021/10/13 02:16:35;;;;;;;25.72;19.17;;;;;;;6.91;86.49;100314.06;1740642;81;25836;-84
2021/10/13 02:19:06;;;;;;;29.85;20.08;;;;;;;6.92;86.48;100321.06;1696690;81;27603;-84
2021/10/13 02:21:37;;;;;;;27.00;18.07;;;;;;;6.93;86.59;100324.53;1726142;81;26307;-84
2021/10/13 02:24:06;;;;;;;26.23;19.60;;;;;;;6.95;86.69;100322.52;1746558;80;25380;-84
2021/10/13 02:26:41;;;;;;;27.37;20.00;;;;;;;6.91;86.73;100323.38;1740597;81;26173;-85
2021/10/13 02:29:16;;;;;;;28.00;19.62;;;;;;;6.92;86.79;100331.70;1736854;81;25838;-84
2021/10/13 02:31:44;;;;;;;30.43;21.02;;;;;;;6.97;86.95;100336.00;1742557;81;27481;-84
2021/10/13 02:34:13;;;;;;;28.90;20.77;;;;;;;6.98;86.77;100339.02;1675165;82;25894;-84
2021/10/13 02:36:40;;;;;;;24.80;19.85;;;;;;;7.03;86.86;100342.50;1758735;80;25859;-84
2021/10/13 02:39:08;;;;;;;30.27;21.33;;;;;;;7.03;86.80;100339.31;1710276;80;25950;-84
2021/10/13 02:41:37;;;;;;;31.62;21.05;;;;;;;7.06;86.86;100342.66;1698702;80;25859;-83
2021/10/13 02:44:07;;;;;;;34.30;22.35;;;;;;;7.07;86.88;100333.66;1686853;80;27290;-84
2021/10/13 02:46:55;;;;;;;32.48;22.50;;;;;;;7.08;87.01;100334.00;1769899;80;26049;-84
2021/10/13 02:49:50;;;;;;;33.90;22.87;;;;;;;7.06;86.82;100339.48;1734653;81;25805;-84
2021/10/13 02:52:34;;;;;;;35.80;23.60;;;;;;;7.07;86.94;100338.49;1719221;82;25868;-84
2021/10/13 02:55:09;;;;;;;36.35;23.42;;;;;;;7.09;86.97;100344.48;1742293;81;25975;-84
2021/10/13 02:57:43;;;;;;;39.73;26.35;;;;;;;7.08;87.13;100349.45;1760804;80;27460;-84
2021/10/13 03:00:13;;;;;;;40.23;25.97;;;;;;;7.05;87.09;100351.15;1737345;80;25981;-84
2021/10/13 03:02:54;;;;;;;40.38;25.97;;;;;;;7.06;87.22;100354.12;1719280;80;25335;-84
2021/10/13 03:05:23;;;;;;;41.53;26.25;;;;;;;7.07;87.20;100345.15;1706763;81;26325;-84
2021/10/13 03:07:52;;;;;;;42.95;25.95;;;;;;;7.08;87.24;100354.78;1765408;80;25850;-84
2021/10/13 03:10:20;;;;;;;41.92;25.50;;;;;;;7.12;87.30;100357.44;1731899;81;28454;-84
2021/10/13 03:12:53;;;;;;;40.40;25.57;;;;;;;7.16;87.28;100361.94;1767618;80;25881;-84
2021/10/13 03:15:24;;;;;;;39.18;25.27;;;;;;;7.17;87.27;100363.09;1735187;80;26124;-84
2021/10/13 03:17:53;;;;;;;;;;;;;;;7.19;87.26;100365.58;1762146;80;25806;-84
2021/10/13 03:20:21;;;;;;;39.33;23.15;;;;;;;7.18;87.29;100364.77;1782550;79;25957;-84
2021/10/13 03:22:51;;;;;;;49.55;24.87;;;;;;;7.18;87.32;100370.59;1684371;80;28247;-85
2021/10/13 03:25:30;;;;;;;43.63;25.37;;;;;;;7.19;87.37;100372.23;1751843;80;25759;-84
2021/10/13 03:27:59;;;;;;;40.15;25.75;;;;;;;7.20;87.37;100379.23;1759127;80;25795;-85
2021/10/13 03:30:27;;;;;;;42.50;26.45;;;;;;;7.21;87.37;100380.39;1684129;81;26508;-84
2021/10/13 03:32:54;;;;;;;44.15;26.62;;;;;;;7.21;87.33;100382.22;1671308;80;25933;-83
2021/10/13 03:35:28;;;;;;;43.40;25.92;;;;;;;7.24;87.49;100390.72;1739017;80;27619;-84
2021/10/13 03:37:59;;;;;;;42.03;25.62;;;;;;;7.22;87.36;100383.41;1761976;80;25830;-84
2021/10/13 03:40:27;;;;;;;39.98;25.00;;;;;;;7.24;87.35;100385.89;1711080;80;25856;-85
2021/10/13 03:42:54;;;;;;;44.15;25.97;;;;;;;7.25;87.52;100387.04;1732781;80;26587;-85
2021/10/13 03:45:23;;;;;;;43.35;26.73;;;;;;;7.28;87.59;100384.54;1763838;80;25772;-85
2021/10/13 03:47:51;;;;;;;43.52;25.15;;;;;;;7.31;87.44;100389.54;1761233;80;27618;-84
2021/10/13 03:50:21;;;;;;;51.40;27.50;;;;;;;7.31;87.46;100391.71;1695568;81;25937;-83
2021/10/13 03:52:48;;;;;;;42.25;24.75;;;;;;;7.33;87.46;100388.87;1699832;80;26000;-84
2021/10/13 03:55:17;;;;;;;46.92;26.12;;;;;;;7.33;87.42;100393.70;1770088;80;26574;-85
2021/10/13 03:57:44;;;;;;;41.40;24.92;;;;;;;7.32;87.44;100392.02;1743818;80;25818;-85
2021/10/13 04:00:18;;;;;;;44.98;26.87;;;;;;;7.32;87.49;100393.84;1701889;81;28214;-84
2021/10/13 04:02:46;;;;;;;46.73;26.93;;;;;;;7.30;87.40;100399.36;1698570;80;25934;-84
2021/10/13 04:05:13;;;;;;;44.42;25.92;;;;;;;7.32;87.55;100398.69;1756746;79;25857;-84
2021/10/13 04:07:40;;;;;;;47.13;28.25;;;;;;;7.34;87.63;100394.51;1771352;80;25863;-85
2021/10/13 04:10:11;;;;;;;46.90;27.75;;;;;;;7.33;87.58;100396.36;1679596;81;25340;-85
2021/10/13 04:12:39;;;;;;;46.90;25.57;;;;;;;7.34;87.61;100399.84;1743731;81;27330;-85
2021/10/13 04:15:09;;;;;;;41.80;26.50;;;;;;;7.34;87.71;100406.50;1739152;81;25995;-85
2021/10/13 04:17:36;;;;;;;45.85;25.27;;;;;;;7.32;87.65;100401.84;1749101;80;25762;-85
2021/10/13 04:20:07;;;;;;;43.05;26.52;;;;;;;7.33;87.77;100400.86;1698720;82;25989;-85
2021/10/13 04:22:34;;;;;;;44.98;25.85;;;;;;;7.35;87.80;100402.84;1731092;81;25796;-85
2021/10/13 04:25:02;;;;;;;45.38;27.17;;;;;;;7.36;87.75;100404.49;1755869;81;27608;-84
2021/10/13 04:27:29;;;;;;;48.58;27.17;;;;;;;7.38;87.71;100411.81;1759718;81;25860;-85
2021/10/13 04:29:56;;;;;;;42.33;25.62;;;;;;;7.39;87.67;100413.00;1704252;81;25858;-84
2021/10/13 04:32:23;;;;;;;47.35;27.95;;;;;;;7.40;87.47;100413.84;1672536;82;26169;-85
2021/10/13 04:34:50;;;;;;;46.10;27.35;;;;;;;7.42;87.51;100417.97;1764800;80;25788;-85
2021/10/13 04:37:19;;;;;;;44.55;26.62;;;;;;;7.43;87.46;100420.14;1761751;80;27578;-84
2021/10/13 04:39:46;;;;;;;43.17;25.85;;;;;;;7.41;87.47;100419.48;1723599;80;25835;-85
2021/10/13 04:42:13;;;;;;;43.42;24.25;;;;;;;7.39;87.41;100415.66;1686696;81;26343;-85
2021/10/13 04:44:41;;;;;;;40.40;24.40;;;;;;;7.41;87.69;100418.15;1752310;79;25878;-84
2021/10/13 04:47:08;;;;;;;40.67;25.40;;;;;;;7.41;87.56;100424.81;1747023;81;25828;-85
2021/10/13 04:49:35;;;;;;;39.18;24.50;;;;;;;7.44;87.61;100425.81;1733999;81;27311;-85
2021/10/13 04:52:03;;;;;;;43.58;25.92;;;;;;;7.45;87.65;100423.46;1718055;82;25969;-85
2021/10/13 04:54:30;;;;;;;38.85;22.87;;;;;;;7.44;87.57;100425.28;1748729;81;25857;-85
2021/10/13 04:56:57;;;;;;;40.85;23.27;;;;;;;7.43;87.41;100434.80;1748135;81;25860;-85
2021/10/13 04:59:24;;;;;;;40.45;24.55;;;;;;;7.43;87.46;100437.45;1703101;82;26535;-85
2021/10/13 05:01:51;;;;;;;38.63;24.10;;;;;;;7.45;87.50;100440.29;1707287;81;28065;-85
2021/10/13 05:04:18;;;;;;;38.00;23.95;;;;;;;7.42;87.42;100439.28;1711675;82;25837;-84
2021/10/13 05:06:45;;;;;;;33.35;22.20;;;;;;;7.40;87.42;100443.15;1745150;81;25759;-85
2021/10/13 05:09:13;;;;;;;43.08;27.27;;;;;;;7.38;87.49;100443.79;1693759;81;25968;-85
2021/10/13 05:11:40;;;;;;;40.48;26.52;;;;;;;7.38;87.49;100441.96;1657080;84;25647;-84
2021/10/13 05:14:07;;;;;;;36.42;24.18;;;;;;;7.41;87.64;100445.63;1728201;81;27607;-84
2021/10/13 05:16:34;;;;;;;40.70;26.45;;;;;;;7.41;87.60;100446.97;1719675;82;25819;-85
2021/10/13 05:19:02;;;;;;;37.98;22.85;;;;;;;7.43;87.71;100450.29;1694310;80;25857;-85
2021/10/13 05:21:29;;;;;;;37.05;24.70;;;;;;;7.45;87.69;100451.44;1717737;81;26161;-84
2021/10/13 05:23:56;;;;;;;38.73;24.00;;;;;;;7.44;87.67;100459.93;1758620;81;25271;-85
2021/10/13 05:26:23;;;;;;;38.83;24.47;;;;;;;7.45;87.65;100461.61;1752333;81;28334;-84
2021/10/13 05:28:50;;;;;;;40.45;24.35;;;;;;;7.48;87.74;100473.27;1748304;81;25819;-85
2021/10/13 05:31:18;;;;;;;37.38;23.92;;;;;;;7.52;87.80;100477.75;1687045;82;25751;-85
2021/10/13 05:33:45;;;;;;;36.70;23.77;;;;;;;7.54;87.68;100477.92;1736404;81;25862;-85
2021/10/13 05:36:12;;;;;;;37.58;22.95;;;;;;;7.57;87.78;100484.22;1739837;82;25895;-85
2021/10/13 05:38:39;;;;;;;35.95;23.60;;;;;;;7.56;87.65;100489.23;1744477;81;27534;-85
2021/10/13 05:41:06;;;;;;;37.55;25.43;;;;;;;7.53;87.66;100494.90;1722732;81;25593;-85
2021/10/13 05:43:33;;;;;;;37.03;23.42;;;;;;;7.54;87.76;100495.73;1750881;81;25918;-85
2021/10/13 05:46:00;;;;;;;33.00;21.97;;;;;;;7.56;87.97;100500.39;1750099;80;26379;-85
2021/10/13 05:48:27;;;;;;;33.67;21.68;;;;;;;7.54;87.83;100503.24;1779433;79;25299;-84
2021/10/13 05:50:54;;;;;;;31.48;20.88;;;;;;;7.53;88.01;100506.05;1744404;80;28217;-85
2021/10/13 05:53:22;;;;;;;34.08;21.50;;;;;;;7.52;88.01;100513.73;1715670;82;25360;-84
2021/10/13 05:55:49;;;;;;;29.85;19.90;;;;;;;7.54;88.00;100515.73;1743430;81;26402;-84
2021/10/13 05:58:19;;;;;;;27.48;19.52;;;;;;;7.54;88.18;100526.39;1705090;81;25849;-84
2021/10/13 06:00:45;;;;;;;25.92;18.05;;;;;;;7.52;88.03;100529.23;1685770;81;25886;-84
2021/10/13 06:03:12;;;;;;;28.85;19.35;;;;;;;7.52;88.05;100534.56;1719150;82;27546;-85
2021/10/13 06:05:40;;;;;;;24.23;17.85;;;;;;;7.51;88.10;100538.22;1749214;81;25807;-84
2021/10/13 06:08:07;;;;;;;26.75;18.82;;;;;;;7.47;88.11;100539.55;1729165;82;25865;-84
2021/10/13 06:10:34;;;;;;;24.75;16.75;;;;;;;7.43;88.12;100536.89;1662307;81;25917;-84
2021/10/13 06:13:01;;;;;;;22.90;17.50;;;;;;;7.45;88.37;100542.05;1749206;81;25871;-85
2021/10/13 06:15:34;;;;;;;23.32;16.35;;;;;;;7.45;88.13;100543.38;1737831;81;46291;-84
2021/10/13 06:17:58;;;;;;;22.87;17.67;;;;;;;7.46;88.26;100550.39;1734953;80;25832;-85
2021/10/13 06:20:25;;;;;;;21.02;16.80;;;;;;;7.46;88.15;100555.72;1755214;79;26347;-84
2021/10/13 06:22:53;;;;;;;23.73;18.05;;;;;;;7.46;88.20;100562.38;1653464;83;25836;-85
2021/10/13 06:25:20;;;;;;;24.47;17.37;;;;;;;7.46;88.16;100567.19;1667776;84;26025;-87
2021/10/13 06:27:48;;;;;;;21.25;16.00;;;;;;;7.47;88.14;100572.87;1747718;80;27500;-87
2021/10/13 06:30:16;;;;;;;23.80;17.55;;;;;;;7.49;88.25;100578.02;1730072;81;25427;-86
2021/10/13 06:32:43;;;;;;;19.95;16.70;;;;;;;7.50;88.22;100581.88;1721087;82;25854;-84
2021/10/13 06:35:10;;;;;;;22.70;16.48;;;;;;;7.50;88.12;100584.54;1734191;81;26523;-86
2021/10/13 06:37:38;;;;;;;24.12;18.37;;;;;;;7.52;88.12;100591.03;1746201;81;25806;-85
2021/10/13 06:40:06;;;;;;;28.55;22.60;;;;;;;7.54;88.24;100588.53;1688083;81;27944;-86
2021/10/13 06:42:33;;;;;;;23.07;17.07;;;;;;;7.55;88.10;100594.18;1702050;80;25821;-85
2021/10/13 06:45:00;;;;;;;25.15;18.37;;;;;;;7.56;88.01;100597.69;1673897;81;25838;-85
2021/10/13 06:47:27;;;;;;;20.27;16.05;;;;;;;7.59;88.12;100592.03;1751636;81;25879;-85
2021/10/13 06:49:54;;;;;;;20.85;15.00;;;;;;;7.62;88.04;100604.52;1681010;82;25805;-85
2021/10/13 06:52:22;;;;;;;20.32;16.05;;;;;;;7.64;88.27;100606.51;1706627;81;27557;-85
2021/10/13 06:54:49;;;;;;;18.10;14.68;;;;;;;7.66;88.24;100612.50;1762688;79;25880;-85
2021/10/13 06:57:16;;;;;;;20.72;16.45;;;;;;;7.70;88.11;100613.83;1719202;81;25857;-85
2021/10/13 06:59:44;;;;;;;19.55;15.18;;;;;;;7.71;87.84;100613.34;1742312;81;26640;-85
2021/10/13 07:02:11;;;;;;;17.32;13.98;;;;;;;7.75;87.80;100610.66;1711123;82;25354;-85
2021/10/13 07:04:39;;;;;;;15.88;13.18;;;;;;;7.78;87.73;100614.34;1687147;82;27513;-84
2021/10/13 07:07:06;;;;;;;19.60;14.05;;;;;;;7.79;87.72;100618.66;1710907;82;25388;-85
2021/10/13 07:09:33;;;;;;;21.82;15.38;;;;;;;7.78;87.45;100610.34;1697003;81;25811;-85
2021/10/13 07:12:00;;;;;;;21.90;16.07;;;;;;;7.82;87.63;100618.33;1743345;80;26637;-84
2021/10/13 07:14:27;;;;;;;19.37;15.55;;;;;;;7.86;87.63;100626.33;1718762;81;25763;-85
2021/10/13 07:16:54;;;;;;;21.45;16.60;;;;;;;7.89;87.33;100625.97;1742640;81;27582;-86
2021/10/13 07:19:21;;;;;;;18.42;15.63;;;;;;;7.92;87.30;100623.47;1713893;81;25441;-85
2021/10/13 07:21:49;;;;;;;19.02;15.43;;;;;;;7.94;87.16;100626.31;1682567;83;25873;-85
2021/10/13 07:24:16;;;;;;;19.40;15.32;;;;;;;7.99;87.35;100629.80;1700258;82;26021;-86
2021/10/13 07:26:45;;;;;;;17.65;14.03;;;;;;;8.06;87.31;100636.14;1704400;82;25797;-86
2021/10/13 07:29:13;;;;;;;16.70;14.55;;;;;;;8.10;87.10;100634.79;1696948;81;28239;-85
2021/10/13 07:31:40;;;;;;;17.92;14.78;;;;;;;8.13;86.80;100633.09;1714271;82;25741;-85
2021/10/13 07:34:07;;;;;;;15.53;13.22;;;;;;;8.16;86.81;100628.77;1745892;80;25828;-86
2021/10/13 07:36:34;;;;;;;19.40;14.70;;;;;;;8.23;86.83;100636.44;1762139;80;25953;-85
2021/10/13 07:39:01;;;;;;;20.48;15.00;;;;;;;8.27;86.61;100636.45;1740457;80;25965;-86
2021/10/13 07:41:28;;;;;;;23.92;17.52;;;;;;;8.32;86.93;100642.92;1674246;81;27573;-85
2021/10/13 07:43:56;;;;;;;17.92;15.30;;;;;;;8.40;86.94;100638.89;1731510;81;26427;-85
2021/10/13 07:46:25;;;;;;;18.55;16.40;;;;;;;8.44;86.69;100641.58;1764352;79;25822;-85
2021/10/13 07:48:52;;;;;;;19.35;17.00;;;;;;;8.46;86.47;100644.06;1655383;82;25954;-85
2021/10/13 07:51:19;;;;;;;17.23;15.45;;;;;;;8.49;86.09;100646.38;1693018;82;25827;-86
2021/10/13 07:53:47;;;;;;;15.60;13.53;;;;;;;8.54;86.30;100651.55;1670773;84;28275;-84
2021/10/13 07:56:13;;;;;;;13.15;11.75;;;;;;;8.58;85.60;100646.68;1741774;78;25869;-86
2021/10/13 07:58:41;;;;;;;14.43;12.75;;;;;;;8.62;85.36;100645.85;1683405;82;25823;-86
2021/10/13 08:01:08;;;;;;;16.82;11.63;;;;;;;8.63;85.44;100651.02;1684542;81;25851;-84
2021/10/13 08:03:34;;;;;;;12.40;10.80;;;;;;;8.65;85.00;100649.00;1752362;80;25794;-85
2021/10/13 08:06:02;;;;;;;12.40;10.58;;;;;;;8.64;84.43;100649.19;1727280;81;28252;-85
2021/10/13 08:08:29;;;;;;;13.22;10.82;;;;;;;8.64;84.27;100653.19;1692230;82;26332;-85
2021/10/13 08:10:56;;;;;;;12.95;10.48;;;;;;;8.62;83.79;100652.53;1715121;81;25894;-85
2021/10/13 08:13:23;;;;;;;15.85;11.05;;;;;;;8.58;83.69;100660.03;1753450;79;25903;-84
2021/10/13 08:15:50;;;;;;;14.43;11.40;;;;;;;8.58;83.74;100648.02;1727337;82;25853;-85
2021/10/13 08:18:17;;;;;;;18.40;12.80;;;;;;;8.57;83.69;100660.21;1690751;82;28189;-83
2021/10/13 08:20:44;;;;;;;15.43;12.82;;;;;;;8.61;83.87;100667.70;1722267;81;25922;-86
2021/10/13 08:23:11;;;;;;;19.10;13.75;;;;;;;8.72;84.28;100666.00;1742683;81;25903;-84
2021/10/13 08:25:38;;;;;;;17.77;14.73;;;;;;;8.80;84.37;100664.63;1745473;80;25773;-85
2021/10/13 08:28:05;;;;;;;15.63;12.63;;;;;;;8.85;84.20;100668.95;1756947;80;25871;-85
2021/10/13 08:30:32;;;;;;;20.08;13.03;;;;;;;8.83;83.05;100667.45;1687768;83;28170;-85
2021/10/13 08:32:59;;;;;;;17.10;14.00;;;;;;;8.81;83.41;100666.27;1781150;79;25861;-85
2021/10/13 08:35:28;;;;;;;18.75;14.95;;;;;;;8.83;83.40;100675.47;1738748;81;25865;-85
2021/10/13 08:37:55;;;;;;;21.52;15.35;;;;;;;8.83;83.73;100670.94;1746895;81;26432;-86
2021/10/13 08:40:22;;;;;;;16.48;13.35;;;;;;;8.85;83.42;100672.96;1684106;84;25891;-85
2021/10/13 08:42:56;;;;;;;17.45;13.38;;;;;;;8.79;82.36;100672.30;1700268;81;28306;-87
2021/10/13 08:45:26;;;;;;;14.87;13.22;;;;;;;8.70;82.20;100676.52;1752911;80;25891;-85
2021/10/13 08:47:53;;;;;;;19.00;15.28;;;;;;;8.69;82.46;100678.35;1698389;82;26119;-86
2021/10/13 08:50:22;;;;;;;17.65;14.58;;;;;;;8.69;82.49;100682.86;1713097;82;25776;-86
2021/10/13 08:52:54;;;;;;;15.20;12.18;;;;;;;8.75;82.97;100682.16;1697526;81;25841;-84
2021/10/13 08:55:21;;;;;;;14.18;11.35;;;;;;;8.85;82.46;100676.97;1723061;82;27406;-86
2021/10/13 08:58:10;;;;;;;15.58;11.65;;;;;;;8.87;82.26;100676.78;1689828;82;26060;-87
2021/10/13 09:00:38;;;;;;;13.83;12.13;;;;;;;8.91;82.03;100686.11;1703732;82;25947;-86
2021/10/13 09:03:05;;;;;;;17.02;14.68;;;;;;;8.87;81.78;100684.30;1724888;80;26135;-85
2021/10/13 09:05:32;;;;;;;13.85;12.10;;;;;;;8.90;81.86;100689.28;1762525;79;25966;-86
2021/10/13 09:07:59;;;;;;;14.38;12.80;;;;;;;8.98;81.83;100693.77;1739327;81;27641;-85
2021/10/13 09:10:31;;;;;;;16.75;13.60;;;;;;;9.08;82.07;100695.72;1717833;82;25910;-86
2021/10/13 09:13:00;;;;;;;14.38;12.58;;;;;;;9.15;81.79;100692.16;1705729;81;25884;-86
2021/10/13 09:15:29;;;;;;;14.85;11.85;;;;;;;9.25;81.34;100694.13;1718567;81;26399;-86
2021/10/13 09:18:06;;;;;;;15.70;13.80;;;;;;;9.42;82.14;100695.35;1729062;81;26249;-86
2021/10/13 09:20:38;;;;;;;15.70;13.48;;;;;;;9.58;81.21;100697.41;1665715;82;27576;-86
2021/10/13 09:23:30;;;;;;;16.37;12.75;;;;;;;9.73;81.33;100700.97;1756900;80;26405;-85
2021/10/13 09:26:11;;;;;;;12.35;10.65;;;;;;;9.88;81.01;100698.37;1686446;81;25474;-85
2021/10/13 09:28:39;;;;;;;12.33;9.18;;;;;;;9.93;80.68;100699.48;1764932;81;26583;-86
2021/10/13 09:31:17;;;;;;;12.73;9.38;;;;;;;9.92;79.57;100696.47;1736916;81;25370;-86
2021/10/13 09:34:06;;;;;;;10.63;9.05;;;;;;;9.88;78.51;100697.84;1698376;81;27540;-86
2021/10/13 09:36:47;;;;;;;13.72;9.63;;;;;;;9.86;78.84;100701.70;1673594;82;26072;-86
2021/10/13 09:39:18;;;;;;;9.60;8.05;;;;;;;9.92;78.72;100709.84;1749619;80;25814;-86
2021/10/13 09:42:09;;;;;;;9.80;7.90;;;;;;;9.99;78.72;100708.13;1716876;81;25915;-86
2021/10/13 09:44:54;;;;;;;9.25;8.35;;;;;;;10.13;77.87;100710.56;1689073;81;25995;-86
2021/10/13 09:47:32;;;;;;;9.05;7.30;;;;;;;10.23;77.89;100704.44;1710278;81;27444;-87
2021/10/13 09:50:00;;;;;;;9.78;8.50;;;;;;;10.27;77.85;100708.41;1764587;80;25776;-86
2021/10/13 09:52:30;;;;;;;8.55;7.40;;;;;;;10.37;77.07;100712.17;1736790;81;25808;-85
2021/10/13 09:55:05;;;;;;;9.88;7.37;;;;;;;10.39;77.99;100710.95;1738537;80;26123;-86
2021/10/13 09:57:36;;;;;;;8.13;6.75;;;;;;;10.43;77.27;100710.94;1691710;81;25714;-85
2021/10/13 10:00:18;;;;;;;;;;;;;;;10.47;76.67;100712.73;1744810;81;27417;-86
2021/10/13 10:02:55;;;;;;;6.90;5.58;;;;;;;10.47;75.76;100715.41;1694833;81;25934;-87
2021/10/13 10:05:37;;;;;;;7.15;6.00;;;;;;;10.46;75.45;100716.41;1702016;82;25818;-87
2021/10/13 10:08:08;;;;;;;6.58;5.87;;;;;;;10.43;75.55;100713.62;1713573;81;26474;-87
2021/10/13 10:10:38;;;;;;;7.15;6.40;;;;;;;10.48;76.24;100719.73;1751764;81;25386;-87
2021/10/13 10:13:10;;;;;;;7.47;6.60;;;;;;;10.50;76.03;100715.86;1752914;81;28200;-87
2021/10/13 10:15:44;;;;;;;5.12;4.37;;;;;;;10.54;75.71;100720.37;1675277;82;26032;-87
2021/10/13 10:18:33;;;;;;;8.93;5.70;;;;;;;10.55;74.87;100723.36;1695031;84;25920;-86
2021/10/13 10:21:27;;;;;;;4.97;4.47;;;;;;;10.44;74.58;100726.48;1749931;81;25908;-87
2021/10/13 10:23:58;;;;;;;5.37;4.87;;;;;;;10.40;75.04;100727.36;1784465;79;25882;-87
2021/10/13 10:26:29;;;;;;;;;;;;;;;10.36;73.86;100726.06;1650338;84;27538;-87
2021/10/13 10:29:12;;;;;;;6.53;4.40;;;;;;;10.33;74.39;100730.43;1698711;82;25873;-87
2021/10/13 10:31:42;;;;;;;4.42;4.03;;;;;;;10.34;74.59;100724.58;1724753;82;25915;-86
2021/10/13 10:34:16;;;;;;;4.62;3.35;;;;;;;10.37;74.61;100725.03;1679989;84;25945;-88
2021/10/13 10:36:48;;;;;;;3.67;2.65;;;;;;;10.43;74.36;100728.84;1614977;85;25593;-85
2021/10/13 10:39:19;;;;;;;3.33;2.60;;;;;;;10.46;73.57;100727.12;1697500;82;27453;-87
2021/10/13 10:41:54;;;;;;;5.45;3.17;;;;;;;10.49;73.50;100721.41;1718178;82;25742;-87
2021/10/13 10:44:41;;;;;;;4.40;3.42;;;;;;;10.55;73.93;100720.17;1701404;82;25681;-87
2021/10/13 10:47:15;;;;;;;4.53;3.67;;;;;;;10.64;74.05;100716.91;1701426;82;26530;-86
2021/10/13 10:49:50;;;;;;;3.87;2.80;;;;;;;10.77;74.34;100724.63;1694549;84;25914;-87
2021/10/13 10:52:21;;;;;;;2.62;2.40;;;;;;;10.80;73.46;100724.24;1725804;82;27459;-87
2021/10/13 10:55:07;;;;;;;2.92;2.30;;;;;;;10.80;73.02;100727.42;1667777;84;26419;-86
2021/10/13 10:57:39;;;;;;;6.80;2.30;;;;;;;10.79;73.13;100735.16;1646102;85;25895;-86
2021/10/13 11:00:10;;;;;;;3.37;2.05;;;;;;;10.79;72.52;100734.66;1712234;81;26396;-87
2021/10/13 11:02:38;;;;;;;3.50;2.45;;;;;;;10.78;72.19;100735.66;1681240;83;25858;-87
2021/10/13 11:05:09;;;;;;;4.72;2.62;;;;;;;10.73;71.94;100739.38;1669681;85;27548;-86
2021/10/13 11:07:39;;;;;;;2.75;2.42;;;;;;;10.70;71.73;100737.09;1659446;83;26466;-86
2021/10/13 11:10:09;;;;;;;4.60;2.80;;;;;;;10.65;71.58;100741.32;1689057;82;26031;-86
2021/10/13 11:12:53;;;;;;;8.50;2.83;;;;;;;10.62;72.19;100741.70;1663842;83;25932;-86
2021/10/13 11:15:24;;;;;;;5.12;2.95;;;;;;;10.64;72.47;100743.19;1693350;83;25874;-87
2021/10/13 11:17:52;;;;;;;4.70;3.40;;;;;;;10.68;72.89;100743.64;1638694;83;28114;-87
2021/10/13 11:20:25;;;;;;;4.37;2.92;;;;;;;10.68;72.25;100744.98;1690269;83;26596;-87
2021/10/13 11:23:01;;;;;;;3.20;2.70;;;;;;;10.67;72.53;100748.16;1681466;84;25829;-87
2021/10/13 11:25:28;;;;;;;5.95;2.70;;;;;;;10.60;72.05;100745.91;1677475;83;25823;-87
2021/10/13 11:28:07;;;;;;;3.15;2.47;;;;;;;10.56;72.42;100751.28;1725620;82;25818;-87
2021/10/13 11:30:50;;;;;;;5.00;2.80;;;;;;;10.53;72.70;100751.67;1696066;83;27501;-87
2021/10/13 11:33:20;;;;;;;5.37;4.10;;;;;;;10.53;73.11;100757.03;1657423;83;25794;-86
2021/10/13 11:35:49;;;;;;;3.35;2.80;;;;;;;10.56;72.92;100755.30;1646886;83;25646;-86